Huvudsida
METAR-TAF:

METAR-TAF

Flygplatser :

Chennai, Indien

Chennais internationella flygplats

latitud: 13-00N, longitud: 080-11E, höjd: 10 m

Aktuellt väderrapport

Denna rapport gjordes för 5 minuter sedan, klockan 01:00 UTC
Vind 6 kt från syd/sydväst
Temperatur 29°C
Fuktighet 84%
Tryck 1009 hPa
Sikt: 6000 m
Få moln på en höjd av 2000 ft

METAR: VOMM 250100Z 20006KT 6000 FEW020 29/26 Q1009 NOSIG

Tid: 06:35 (01:05 UTC)

Väderprognos

Denna rapport gjordes för 2 timmar och 5 minuter sedan, klockan 23:00 UTC
Prognos gäller från 25 kl. 00 UTC till 26 kl. 06 UTC
Vind 10 kt från syd
Sikt: 6000 m
Få moln på en höjd av 2000 ft
Blir
från 25 kl. 06 UTC till 25 kl. 07 UTC
Vind 10 kt från ost/sydost
Temporärt
från 25 kl. 09 UTC till 25 kl. 12 UTC
Vind 10 kt från ost/sydost i byarna ända upp till 20 kt
Blir
från 25 kl. 18 UTC till 25 kl. 19 UTC
Vind 10 kt från syd/sydväst

TAF: VOMM 242300Z 2500/2606 18010KT 6000 FEW020 BECMG 2506/2507 12010KT TEMPO 2509/2512 12010G20KT BECMG 2518/2519 20010KT

Aktuella väderrapporter och prognoser från 4000 flygplatser (METAR- och TAF-rapporter).

De tillgängliga stationerna syns som gula och röda prickar på kartan.

För musen över prickarna för att se namnen på stationerna.

Klicka sedan för att få väderrapporter och prognoser.

För att ändra kartan: Klicka på de gröna knapparna med ett svart kors på för att zooma in; den gröna knappen med ett streck på för att zooma ut; eller på de gröna pilarna för angränsande kartor.


METAR-TAF: